Juan_de_la_cosa — ECJE — position and weather

sailwx.info

Track history (hours):
 
Tides and Currents Weather Stations Pressure Air Temp Water Temp Dewpoint Dewpoint Depression Visibility Wind Speed Wind Dir Waves Ship Positions

Juan_de_la_cosa

Last reported at 2016-Aug-24 08:21 UTC. Time now 2016-Aug-25 01:03 UTC.
Position N 43°46' W 005°33'.

Length 75 m.

Type: SAR. MMSI: 224612000.

Date/timePositionNaut miles runAvg speedWind from/ knotsBaromVisibWave heightAir tempDewpointWater temp
2016-Aug-24 08:21N 43°46' W 005°33'1110.1
2016-Aug-24 07:15N 43°42' W 005°47'810.3
2016-Aug-24 06:28N 43°43' W 005°59'5310.8
2016-Aug-24 01:31N 43°48' W 007°12'1110.6
2016-Aug-24 00:31N 43°50' W 007°26'1010.5
2016-Aug-23 23:33N 43°51' W 007°40'1010.3
2016-Aug-23 22:33N 43°52' W 007°55'1010.3
2016-Aug-23 21:34N 43°52' W 008°09'1110.7
2016-Aug-23 20:33N 43°52' W 008°24'8 7.9
2016-Aug-23 19:30N 43°53' W 008°35'9 2.2
2016-Aug-23 15:27N 43°47' W 008°43'1 0.5
2016-Aug-23 13:21N 43°48' W 008°43'2 1.7
2016-Aug-23 12:23N 43°48' W 008°45'6 1.1
2016-Aug-23 06:24N 43°45' W 008°53'15 1.8
2016-Aug-22 22:09N 43°42' W 009°13'11 4.1
2016-Aug-22 19:32N 43°43' W 008°59'7 7.1
2016-Aug-22 18:34N 43°45' W 008°49'3 3.4
2016-Aug-22 17:33N 43°45' W 008°54'1 0.7
2016-Aug-22 16:28N 43°44' W 008°54'4 4.9
2016-Aug-22 15:33N 43°42' W 008°60'1 0.9
2016-Aug-22 14:34N 43°43' W 009°01'11 5.7
2016-Aug-22 12:33N 43°54' W 008°59'8 7.7
2016-Aug-22 11:33N 43°46' W 008°58'25 5.6
2016-Aug-22 07:07N 44°03' W 008°33'5 8.5
2016-Aug-22 06:33N 44°06' W 008°28'5 5.1
2016-Aug-22 05:34N 44°11' W 008°25'6 1.5
2016-Aug-22 01:21N 44°06' W 008°21'  
2016-Aug-17 04:19N 44°05' W 005°14'8 0.5
2016-Aug-16 14:08N 43°58' W 005°08'21 5.8
2016-Aug-16 10:27N 44°09' W 005°34'89 5.8
2016-Aug-15 19:13N 44°39' W 003°37'710.4
2016-Aug-15 18:32N 44°38' W 003°47'2210.7
2016-Aug-15 16:27N 44°36' W 004°19'1010.8
2016-Aug-15 15:33N 44°32' W 004°30'1110.9
2016-Aug-15 14:34N 44°26' W 004°43'2110.4
2016-Aug-15 12:34N 44°11' W 005°04'1110.7
2016-Aug-15 11:33N 44°02' W 005°12'1010.5
2016-Aug-15 10:33N 43°54' W 005°20'1110.5
2016-Aug-15 09:33N 43°44' W 005°28'1010.2
2016-Aug-15 08:33N 43°36' W 005°35'4 4.0
2016-Aug-15 07:33N 43°34' W 005°40'5 4.6
2016-Aug-15 06:33N 43°38' W 005°41'12 5.7
2016-Aug-15 04:29N 43°50' W 005°41'6 5.7
2016-Aug-15 03:29N 43°56' W 005°41'5 4.9
2016-Aug-15 02:30N 44°01' W 005°42'6 5.6
2016-Aug-15 01:27N 44°00' W 005°51'5 5.2
2016-Aug-15 00:31N 44°00' W 005°57'9 1.7
2016-Aug-14 19:08N 44°07' W 006°05'14 8.7
2016-Aug-14 17:30N 44°10' W 005°45'9 3.1
2016-Aug-14 14:33N 44°06' W 005°34'3 3.1
2016-Aug-14 13:33N 44°09' W 005°32'8 8.2
2016-Aug-14 12:32N 44°07' W 005°20'1410.1
2016-Aug-14 11:12N 44°00' W 005°04'6 3.3
2016-Aug-14 09:27N 44°06' W 005°02'6 6.2
2016-Aug-14 08:33N 44°03' W 005°09'  
Track history (hours):
 
Tides and Currents Weather Stations Pressure Air Temp Water Temp Dewpoint Dewpoint Depression Visibility Wind Speed Wind Dir Waves Ship Positions

Juan_de_la_cosa

Last reported at 2016-Aug-24 08:21 UTC. Time now 2016-Aug-25 01:03 UTC.
Position N 43°46' W 005°33'.

Length 75 m.

Type: SAR. MMSI: 224612000.

Date/timePositionNaut miles runAvg speedWind from/ knotsBaromVisibWave heightAir tempDewpointWater temp
2016-Aug-24 08:21N 43°46' W 005°33'1110.1
2016-Aug-24 07:15N 43°42' W 005°47'810.3
2016-Aug-24 06:28N 43°43' W 005°59'5310.8
2016-Aug-24 01:31N 43°48' W 007°12'1110.6
2016-Aug-24 00:31N 43°50' W 007°26'1010.5
2016-Aug-23 23:33N 43°51' W 007°40'1010.3
2016-Aug-23 22:33N 43°52' W 007°55'1010.3
2016-Aug-23 21:34N 43°52' W 008°09'1110.7
2016-Aug-23 20:33N 43°52' W 008°24'8 7.9
2016-Aug-23 19:30N 43°53' W 008°35'9 2.2
2016-Aug-23 15:27N 43°47' W 008°43'1 0.5
2016-Aug-23 13:21N 43°48' W 008°43'2 1.7
2016-Aug-23 12:23N 43°48' W 008°45'6 1.1
2016-Aug-23 06:24N 43°45' W 008°53'15 1.8
2016-Aug-22 22:09N 43°42' W 009°13'11 4.1
2016-Aug-22 19:32N 43°43' W 008°59'7 7.1
2016-Aug-22 18:34N 43°45' W 008°49'3 3.4
2016-Aug-22 17:33N 43°45' W 008°54'1 0.7
2016-Aug-22 16:28N 43°44' W 008°54'4 4.9
2016-Aug-22 15:33N 43°42' W 008°60'1 0.9
2016-Aug-22 14:34N 43°43' W 009°01'11 5.7
2016-Aug-22 12:33N 43°54' W 008°59'8 7.7
2016-Aug-22 11:33N 43°46' W 008°58'25 5.6
2016-Aug-22 07:07N 44°03' W 008°33'5 8.5
2016-Aug-22 06:33N 44°06' W 008°28'5 5.1
2016-Aug-22 05:34N 44°11' W 008°25'6 1.5
2016-Aug-22 01:21N 44°06' W 008°21'  
2016-Aug-17 04:19N 44°05' W 005°14'8 0.5
2016-Aug-16 14:08N 43°58' W 005°08'21 5.8
2016-Aug-16 10:27N 44°09' W 005°34'89 5.8
2016-Aug-15 19:13N 44°39' W 003°37'710.4
2016-Aug-15 18:32N 44°38' W 003°47'2210.7
2016-Aug-15 16:27N 44°36' W 004°19'1010.8
2016-Aug-15 15:33N 44°32' W 004°30'1110.9
2016-Aug-15 14:34N 44°26' W 004°43'2110.4
2016-Aug-15 12:34N 44°11' W 005°04'1110.7
2016-Aug-15 11:33N 44°02' W 005°12'1010.5
2016-Aug-15 10:33N 43°54' W 005°20'1110.5
2016-Aug-15 09:33N 43°44' W 005°28'1010.2
2016-Aug-15 08:33N 43°36' W 005°35'4 4.0
2016-Aug-15 07:33N 43°34' W 005°40'5 4.6
2016-Aug-15 06:33N 43°38' W 005°41'12 5.7
2016-Aug-15 04:29N 43°50' W 005°41'6 5.7
2016-Aug-15 03:29N 43°56' W 005°41'5 4.9
2016-Aug-15 02:30N 44°01' W 005°42'6 5.6
2016-Aug-15 01:27N 44°00' W 005°51'5 5.2
2016-Aug-15 00:31N 44°00' W 005°57'9 1.7
2016-Aug-14 19:08N 44°07' W 006°05'14 8.7
2016-Aug-14 17:30N 44°10' W 005°45'9 3.1
2016-Aug-14 14:33N 44°06' W 005°34'3 3.1
2016-Aug-14 13:33N 44°09' W 005°32'8 8.2
2016-Aug-14 12:32N 44°07' W 005°20'1410.1
2016-Aug-14 11:12N 44°00' W 005°04'6 3.3
2016-Aug-14 09:27N 44°06' W 005°02'6 6.2
2016-Aug-14 08:33N 44°03' W 005°09'  

Dump ship's entire track history